createdAt,value
2023-02-26T00:00:42.712Z,1.95
2023-02-26T00:01:45.174Z,2.10
2023-02-26T00:02:48.718Z,2.35
2023-02-26T00:03:52.059Z,2.85
2023-02-26T00:04:54.337Z,2.40
2023-02-26T00:06:00.994Z,1.90
2023-02-26T00:07:05.981Z,2.25
2023-02-26T00:08:08.369Z,2.00
2023-02-26T00:09:10.588Z,1.98
2023-02-26T00:10:15.829Z,1.90
2023-02-26T00:11:20.403Z,1.60
2023-02-26T00:12:22.896Z,1.80
2023-02-26T00:13:25.474Z,1.95
2023-02-26T00:14:28.819Z,2.03
2023-02-26T00:15:31.410Z,1.95
2023-02-26T00:16:36.210Z,2.50
2023-02-26T00:17:41.180Z,1.60
2023-02-26T00:18:43.729Z,1.88
2023-02-26T00:19:46.106Z,2.20
2023-02-26T00:20:48.705Z,1.85
2023-02-26T00:21:51.207Z,1.92
2023-02-26T00:22:53.738Z,2.45
2023-02-26T00:23:56.714Z,1.70
2023-02-26T00:24:59.105Z,2.10
2023-02-26T00:26:01.412Z,1.90
2023-02-26T00:27:03.686Z,1.75
2023-02-26T00:28:06.219Z,1.95
2023-02-26T00:29:08.678Z,2.38
2023-02-26T00:30:11.667Z,2.27
2023-02-26T00:31:16.322Z,1.92
2023-02-26T00:32:19.032Z,1.83
2023-02-26T00:33:21.666Z,2.00
2023-02-26T00:34:24.210Z,2.50
2023-02-26T00:35:27.320Z,2.13
2023-02-26T00:36:58.101Z,2.22
2023-02-26T00:38:03.645Z,2.05
2023-02-26T00:39:27.066Z,2.35
2023-02-26T00:40:49.057Z,1.83
2023-02-26T00:41:51.660Z,1.75
2023-02-26T00:42:54.319Z,1.85
2023-02-26T00:43:56.842Z,2.70
2023-02-26T00:44:59.728Z,1.75
2023-02-26T00:46:06.677Z,2.45
2023-02-26T00:47:29.870Z,2.15
2023-02-26T00:48:44.387Z,4.30
2023-02-26T00:50:01.973Z,3.30
2023-02-26T00:51:22.412Z,2.30
2023-02-26T00:52:39.100Z,1.88
2023-02-26T00:53:45.877Z,2.22
2023-02-26T00:54:48.145Z,2.10
2023-02-26T00:55:50.380Z,2.17
2023-02-26T00:56:54.279Z,2.47
2023-02-26T00:57:56.997Z,2.25
2023-02-26T00:58:59.278Z,1.65
2023-02-26T01:00:01.531Z,2.10
2023-02-26T01:01:03.794Z,2.25
2023-02-26T01:02:06.066Z,1.88
2023-02-26T01:03:08.676Z,2.30
2023-02-26T01:04:12.677Z,2.05
2023-02-26T01:05:16.105Z,2.17
2023-02-26T01:06:21.315Z,2.60
2023-02-26T01:07:24.920Z,2.13
2023-02-26T01:08:57.253Z,1.98
2023-02-26T01:09:59.902Z,2.83
2023-02-26T01:11:02.468Z,1.75
2023-02-26T01:12:08.328Z,1.83
2023-02-26T01:13:10.891Z,1.83
2023-02-26T01:14:13.354Z,2.72
2023-02-26T01:15:16.176Z,1.88
2023-02-26T01:16:24.389Z,1.90
2023-02-26T01:18:03.220Z,1.70
2023-02-26T01:19:33.365Z,1.73
2023-02-26T01:20:47.808Z,1.95
2023-02-26T01:21:56.482Z,2.00
2023-02-26T01:23:09.831Z,1.65
2023-02-26T01:24:15.436Z,1.70
2023-02-26T01:25:57.908Z,1.65
2023-02-26T01:27:00.679Z,1.92
2023-02-26T01:28:03.405Z,1.92
2023-02-26T01:29:05.928Z,1.67
2023-02-26T01:30:09.626Z,1.50
2023-02-26T01:31:30.360Z,1.73
2023-02-26T01:32:54.918Z,2.20
2023-02-26T01:34:06.583Z,1.40
2023-02-26T01:35:48.054Z,1.70
2023-02-26T01:37:00.139Z,1.88
2023-02-26T01:38:07.692Z,1.70
2023-02-26T01:39:40.825Z,1.92
2023-02-26T01:41:07.339Z,1.70
2023-02-26T01:42:17.973Z,1.52
2023-02-26T01:43:27.268Z,1.70
2023-02-26T01:44:36.456Z,1.40
2023-02-26T01:45:59.902Z,1.60
2023-02-26T01:47:20.257Z,1.88
2023-02-26T01:48:46.009Z,1.95
2023-02-26T01:49:48.686Z,1.70
2023-02-26T01:50:50.961Z,1.80
2023-02-26T01:51:58.740Z,1.80
2023-02-26T01:53:16.548Z,1.17
2023-02-26T01:54:29.405Z,1.63
2023-02-26T01:55:32.565Z,1.75
2023-02-26T01:56:35.284Z,1.95
2023-02-26T01:57:37.992Z,1.73
2023-02-26T01:58:40.399Z,1.40
2023-02-26T01:59:46.485Z,1.58
2023-02-26T02:00:48.901Z,1.50
2023-02-26T02:01:56.967Z,1.65
2023-02-26T02:02:59.400Z,1.48
2023-02-26T02:04:02.679Z,1.90
2023-02-26T02:05:12.077Z,1.30
2023-02-26T02:06:22.362Z,1.40
2023-02-26T02:07:25.148Z,1.58
2023-02-26T02:08:27.542Z,1.30
2023-02-26T02:09:29.945Z,1.40
2023-02-26T02:10:32.789Z,1.25
2023-02-26T02:11:39.189Z,1.25
2023-02-26T02:12:55.177Z,1.42
2023-02-26T02:14:29.749Z,1.38
2023-02-26T02:15:46.758Z,1.20
2023-02-26T02:17:02.738Z,1.13
2023-02-26T02:18:28.269Z,1.58
2023-02-26T02:20:10.171Z,1.30
2023-02-26T02:21:30.863Z,1.65
2023-02-26T02:22:52.671Z,1.10
2023-02-26T02:24:05.857Z,1.27
2023-02-26T02:25:48.429Z,1.10
2023-02-26T02:27:16.772Z,1.10
2023-02-26T02:28:43.826Z,1.58
2023-02-26T02:30:10.946Z,1.40
2023-02-26T02:31:32.428Z,1.63
2023-02-26T02:32:42.012Z,1.10
2023-02-26T02:34:04.275Z,1.23
2023-02-26T02:35:22.888Z,1.50
2023-02-26T02:36:44.503Z,1.38
2023-02-26T02:38:09.515Z,1.60
2023-02-26T02:39:16.707Z,1.55
2023-02-26T02:40:36.096Z,1.27
2023-02-26T02:41:54.678Z,1.25
2023-02-26T02:43:01.584Z,1.08
2023-02-26T02:44:08.768Z,1.48
2023-02-26T02:45:18.804Z,1.38
2023-02-26T02:46:27.264Z,1.77
2023-02-26T02:47:32.388Z,1.20
2023-02-26T02:48:43.637Z,1.20
2023-02-26T02:49:57.953Z,1.60
2023-02-26T02:51:22.624Z,2.13
2023-02-26T02:53:06.885Z,1.60
2023-02-26T02:54:15.286Z,1.50
2023-02-26T02:55:40.745Z,1.67
2023-02-26T02:56:46.779Z,1.25
2023-02-26T02:58:04.296Z,1.75
2023-02-26T02:59:37.403Z,1.52
2023-02-26T03:00:46.422Z,1.75
2023-02-26T03:01:53.049Z,1.30
2023-02-26T03:03:16.781Z,1.40
2023-02-26T03:04:19.963Z,1.65
2023-02-26T03:05:22.307Z,1.40
2023-02-26T03:06:24.805Z,1.38
2023-02-26T03:07:27.170Z,1.33
2023-02-26T03:08:36.518Z,1.40
2023-02-26T03:09:38.960Z,1.83
2023-02-26T03:10:42.244Z,1.23
2023-02-26T03:11:44.570Z,1.30
2023-02-26T03:12:46.855Z,1.48
2023-02-26T03:13:51.457Z,1.20
2023-02-26T03:14:59.569Z,1.40
2023-02-26T03:16:32.214Z,1.55
2023-02-26T03:17:48.193Z,1.88
2023-02-26T03:19:02.423Z,1.10
2023-02-26T03:20:08.446Z,1.35
2023-02-26T03:21:27.150Z,1.33
2023-02-26T03:22:39.368Z,1.40
2023-02-26T03:23:57.633Z,1.40
2023-02-26T03:25:09.276Z,1.27
2023-02-26T03:26:31.918Z,1.65
2023-02-26T03:27:44.845Z,1.50
2023-02-26T03:29:08.738Z,0.90
2023-02-26T03:30:20.370Z,1.40
2023-02-26T03:31:31.171Z,1.30
2023-02-26T03:32:57.246Z,1.08
2023-02-26T03:34:06.378Z,1.05
2023-02-26T03:35:17.937Z,1.00
2023-02-26T03:36:33.674Z,1.20
2023-02-26T03:37:55.656Z,1.10
2023-02-26T03:39:12.918Z,1.35
2023-02-26T03:40:23.844Z,1.25
2023-02-26T03:41:36.519Z,1.50
2023-02-26T03:42:51.510Z,2.08
2023-02-26T03:44:09.088Z,1.55
2023-02-26T03:45:15.995Z,1.20
2023-02-26T03:46:26.091Z,1.17
2023-02-26T03:47:30.844Z,1.58
2023-02-26T03:48:37.073Z,1.42
2023-02-26T03:49:48.700Z,1.55
2023-02-26T03:50:54.948Z,1.35
2023-02-26T03:52:28.529Z,1.30
2023-02-26T03:53:57.877Z,1.52
2023-02-26T03:55:09.633Z,1.35
2023-02-26T03:56:44.864Z,1.38
2023-02-26T03:58:25.832Z,1.25
2023-02-26T03:59:50.856Z,1.30
2023-02-26T04:01:26.333Z,1.30
2023-02-26T04:02:47.291Z,1.35
2023-02-26T04:04:04.111Z,1.40
2023-02-26T04:05:18.721Z,1.67
2023-02-26T04:06:22.811Z,1.50
2023-02-26T04:07:25.946Z,1.33
2023-02-26T04:08:29.442Z,1.42
2023-02-26T04:09:31.707Z,1.42
2023-02-26T04:10:42.259Z,1.25
2023-02-26T04:11:46.313Z,1.20
2023-02-26T04:12:48.573Z,1.35
2023-02-26T04:13:50.828Z,1.58
2023-02-26T04:14:57.469Z,1.23
2023-02-26T04:16:00.920Z,1.15
2023-02-26T04:17:03.593Z,1.42
2023-02-26T04:18:06.204Z,1.30
2023-02-26T04:19:08.435Z,1.00
2023-02-26T04:20:11.881Z,1.35
2023-02-26T04:21:17.216Z,1.40
2023-02-26T04:22:19.475Z,1.40
2023-02-26T04:23:22.109Z,1.38
2023-02-26T04:24:24.425Z,1.55
2023-02-26T04:25:27.170Z,1.55
2023-02-26T04:26:31.061Z,1.80
2023-02-26T04:27:33.985Z,2.67
2023-02-26T04:28:37.916Z,2.30
2023-02-26T04:29:40.241Z,2.50
2023-02-26T04:30:42.589Z,2.05
2023-02-26T04:31:47.252Z,1.63
2023-02-26T04:32:49.627Z,1.73
2023-02-26T04:33:52.282Z,1.63
2023-02-26T04:34:55.246Z,1.75
2023-02-26T04:35:57.944Z,2.10
2023-02-26T04:37:00.252Z,1.70
2023-02-26T04:38:02.775Z,1.80
2023-02-26T04:39:05.694Z,1.60
2023-02-26T04:40:09.093Z,1.88
2023-02-26T04:41:11.484Z,1.23
2023-02-26T04:42:13.850Z,1.73
2023-02-26T04:43:16.709Z,1.38
2023-02-26T04:44:28.441Z,1.60
2023-02-26T04:45:30.836Z,1.40
2023-02-26T04:46:33.626Z,1.67
2023-02-26T04:47:36.208Z,2.35
2023-02-26T04:48:38.881Z,2.08
2023-02-26T04:49:41.170Z,1.23
2023-02-26T04:50:43.832Z,1.70
2023-02-26T04:51:46.148Z,1.40
2023-02-26T04:52:50.749Z,1.63
2023-02-26T04:53:53.272Z,2.03
2023-02-26T04:54:55.765Z,2.40
2023-02-26T04:55:58.065Z,2.58
2023-02-26T04:57:00.390Z,2.58
2023-02-26T04:58:02.847Z,3.47
2023-02-26T04:59:05.189Z,7.22
2023-02-26T05:00:08.256Z,16.65
2023-02-26T05:01:13.768Z,12.52
2023-02-26T05:02:16.206Z,10.48
2023-02-26T05:03:22.230Z,10.80
2023-02-26T05:04:24.697Z,8.75
2023-02-26T05:05:30.119Z,6.75
2023-02-26T05:06:32.581Z,8.43
2023-02-26T05:07:34.920Z,6.38
2023-02-26T05:08:41.596Z,5.47
2023-02-26T05:09:43.903Z,4.97
2023-02-26T05:10:46.691Z,4.30
2023-02-26T05:11:49.175Z,4.53
2023-02-26T05:12:51.655Z,3.10
2023-02-26T05:13:54.807Z,1.92
2023-02-26T05:14:57.174Z,2.28
2023-02-26T05:15:59.472Z,2.25
2023-02-26T05:17:01.776Z,2.17
2023-02-26T05:18:04.223Z,2.13
2023-02-26T05:19:06.522Z,2.50
2023-02-26T05:20:11.863Z,3.30
2023-02-26T05:21:14.332Z,3.67
2023-02-26T05:22:17.405Z,5.47
2023-02-26T05:23:19.821Z,5.18
2023-02-26T05:24:22.293Z,5.38
2023-02-26T05:25:24.652Z,3.83
2023-02-26T05:26:27.958Z,3.67
2023-02-26T05:27:30.489Z,2.63
2023-02-26T05:28:33.990Z,3.30
2023-02-26T05:29:36.647Z,2.55
2023-02-26T05:30:41.276Z,3.40
2023-02-26T05:31:43.659Z,2.95
2023-02-26T05:32:46.239Z,2.40
2023-02-26T05:33:48.483Z,3.17
2023-02-26T05:34:50.806Z,4.05
2023-02-26T05:35:53.145Z,5.50
2023-02-26T05:36:55.513Z,5.93
2023-02-26T05:37:57.789Z,5.78
2023-02-26T05:39:00.104Z,8.23
2023-02-26T05:40:02.972Z,5.47
2023-02-26T05:41:05.476Z,5.93
2023-02-26T05:42:08.684Z,5.47
2023-02-26T05:43:11.071Z,6.05
2023-02-26T05:44:13.910Z,6.00
2023-02-26T05:45:16.362Z,4.57
2023-02-26T05:46:18.707Z,3.35
2023-02-26T05:47:21.126Z,2.58
2023-02-26T05:48:24.018Z,2.35
2023-02-26T05:49:26.317Z,2.17
2023-02-26T05:50:30.582Z,2.85
2023-02-26T05:51:32.883Z,2.38
2023-02-26T05:52:35.201Z,3.05
2023-02-26T05:53:37.423Z,4.70
2023-02-26T05:54:39.663Z,3.25
2023-02-26T05:55:42.026Z,2.50
2023-02-26T05:56:44.380Z,2.00
2023-02-26T05:57:46.652Z,2.03
2023-02-26T05:58:48.959Z,1.70
2023-02-26T05:59:51.521Z,1.77
2023-02-26T06:00:54.162Z,2.03
2023-02-26T06:01:56.445Z,1.50
2023-02-26T06:02:58.739Z,1.50
2023-02-26T06:04:01.051Z,1.85
2023-02-26T06:05:03.612Z,2.30
2023-02-26T06:06:06.071Z,1.70
2023-02-26T06:07:08.473Z,1.98
2023-02-26T06:08:12.248Z,1.83
2023-02-26T06:09:14.522Z,1.55
2023-02-26T06:10:17.093Z,2.13
2023-02-26T06:11:20.623Z,1.77
2023-02-26T06:12:24.637Z,1.85
2023-02-26T06:13:27.156Z,1.85
2023-02-26T06:14:30.106Z,1.70
2023-02-26T06:15:32.689Z,1.50
2023-02-26T06:16:35.946Z,1.70
2023-02-26T06:17:40.821Z,1.60
2023-02-26T06:18:43.396Z,1.70
2023-02-26T06:19:45.623Z,2.40
2023-02-26T06:20:48.084Z,4.90
2023-02-26T06:21:50.562Z,4.07
2023-02-26T06:22:52.847Z,4.50
2023-02-26T06:23:55.069Z,4.05
2023-02-26T06:24:57.344Z,3.15
2023-02-26T06:26:00.046Z,3.20
2023-02-26T06:27:02.348Z,2.88
2023-02-26T06:28:04.671Z,1.65
2023-02-26T06:29:06.960Z,1.88
2023-02-26T06:30:09.841Z,2.28
2023-02-26T06:31:12.165Z,1.75
2023-02-26T06:32:14.602Z,1.90
2023-02-26T06:33:16.976Z,1.50
2023-02-26T06:34:19.258Z,2.15
2023-02-26T06:35:21.519Z,6.22
2023-02-26T06:36:23.966Z,5.90
2023-02-26T06:37:27.663Z,9.05
2023-02-26T06:38:29.934Z,13.25
2023-02-26T06:39:32.806Z,14.02
2023-02-26T06:40:35.090Z,11.32
2023-02-26T06:41:37.315Z,10.30
2023-02-26T06:42:39.575Z,5.63
2023-02-26T06:43:41.961Z,4.15
2023-02-26T06:44:44.446Z,3.17
2023-02-26T06:45:46.748Z,2.53
2023-02-26T06:46:49.074Z,2.03
2023-02-26T06:47:51.773Z,1.88
2023-02-26T06:48:54.062Z,1.27
2023-02-26T06:49:56.401Z,1.17
2023-02-26T06:50:58.619Z,1.50
2023-02-26T06:52:00.876Z,1.33
2023-02-26T06:53:03.548Z,1.45
2023-02-26T06:54:05.828Z,1.45
2023-02-26T06:55:08.685Z,1.73
2023-02-26T06:56:11.037Z,1.13
2023-02-26T06:57:13.303Z,1.35
2023-02-26T06:58:15.535Z,1.35
2023-02-26T06:59:17.827Z,1.30
2023-02-26T07:00:20.703Z,1.60
2023-02-26T07:01:24.298Z,1.83
2023-02-26T07:02:26.927Z,1.55
2023-02-26T07:03:29.277Z,1.20
2023-02-26T07:04:31.570Z,1.00
2023-02-26T07:05:33.830Z,1.70
2023-02-26T07:06:36.059Z,1.20
2023-02-26T07:07:38.321Z,1.45
2023-02-26T07:08:40.618Z,1.00
2023-02-26T07:09:45.616Z,1.65
2023-02-26T07:10:49.546Z,1.52
2023-02-26T07:11:51.820Z,1.80
2023-02-26T07:12:54.159Z,1.45
2023-02-26T07:13:56.481Z,1.10
2023-02-26T07:14:58.726Z,1.10
2023-02-26T07:16:01.312Z,1.25
2023-02-26T07:17:03.775Z,1.40
2023-02-26T07:18:06.159Z,1.70
2023-02-26T07:19:08.458Z,1.60
2023-02-26T07:20:12.289Z,1.58
2023-02-26T07:21:14.651Z,1.10
2023-02-26T07:22:20.285Z,1.25
2023-02-26T07:23:23.661Z,1.10
2023-02-26T07:24:25.959Z,1.30
2023-02-26T07:25:28.550Z,1.00
2023-02-26T07:26:30.881Z,1.08
2023-02-26T07:27:33.499Z,1.27
2023-02-26T07:28:36.028Z,1.35
2023-02-26T07:29:38.797Z,1.17
2023-02-26T07:30:43.005Z,1.00
2023-02-26T07:31:45.385Z,1.40
2023-02-26T07:32:47.781Z,1.15
2023-02-26T07:33:50.100Z,1.23
2023-02-26T07:34:52.526Z,1.80
2023-02-26T07:35:55.235Z,2.30
2023-02-26T07:36:59.193Z,2.65
2023-02-26T07:38:02.119Z,1.88
2023-02-26T07:39:04.412Z,2.75
2023-02-26T07:40:07.674Z,2.60
2023-02-26T07:41:10.207Z,3.30
2023-02-26T07:42:12.522Z,2.35
2023-02-26T07:43:17.482Z,2.95
2023-02-26T07:44:19.971Z,1.77
2023-02-26T07:45:22.634Z,2.38
2023-02-26T07:46:25.389Z,1.73
2023-02-26T07:47:29.666Z,1.92
2023-02-26T07:48:32.037Z,1.70
2023-02-26T07:49:34.462Z,2.65
2023-02-26T07:50:36.795Z,4.05
2023-02-26T07:51:39.429Z,3.13
2023-02-26T07:52:41.941Z,12.32
2023-02-26T07:53:44.194Z,9.23
2023-02-26T07:54:46.469Z,6.80
2023-02-26T07:55:49.419Z,6.28
2023-02-26T07:56:51.857Z,6.70
2023-02-26T07:57:54.103Z,4.10
2023-02-26T07:58:56.606Z,3.88
2023-02-26T07:59:58.933Z,2.20
2023-02-26T08:01:01.218Z,2.00
2023-02-26T08:02:03.614Z,2.10
2023-02-26T08:03:05.846Z,2.30
2023-02-26T08:04:08.391Z,2.30
2023-02-26T08:05:10.779Z,3.00
2023-02-26T08:06:13.030Z,5.45
2023-02-26T08:07:15.626Z,8.90
2023-02-26T08:08:17.911Z,7.65
2023-02-26T08:09:20.786Z,7.65
2023-02-26T08:10:23.267Z,3.45
2023-02-26T08:11:25.614Z,3.15
2023-02-26T08:12:28.526Z,3.90
2023-02-26T08:13:30.796Z,2.60
2023-02-26T08:14:33.134Z,2.28
2023-02-26T08:15:35.480Z,2.53
2023-02-26T08:16:37.857Z,1.67
2023-02-26T08:17:41.295Z,1.88
2023-02-26T08:18:43.784Z,1.30
2023-02-26T08:19:46.059Z,2.10
2023-02-26T08:20:50.651Z,1.73
2023-02-26T08:21:55.293Z,1.40
2023-02-26T08:22:57.729Z,1.15
2023-02-26T08:24:00.486Z,1.40
2023-02-26T08:25:02.764Z,3.00
2023-02-26T08:26:07.396Z,1.40
2023-02-26T08:27:09.698Z,1.73
2023-02-26T08:28:12.487Z,1.80
2023-02-26T08:29:14.883Z,2.10
2023-02-26T08:30:17.349Z,3.22
2023-02-26T08:31:19.701Z,1.40
2023-02-26T08:32:23.256Z,1.40
2023-02-26T08:33:25.855Z,1.15
2023-02-26T08:34:28.177Z,1.67
2023-02-26T08:35:30.669Z,1.60
2023-02-26T08:36:32.965Z,1.90
2023-02-26T08:37:35.345Z,1.40
2023-02-26T08:38:37.694Z,1.20
2023-02-26T08:39:41.101Z,1.30
2023-02-26T08:40:43.747Z,1.38
2023-02-26T08:41:46.040Z,1.52
2023-02-26T08:42:48.451Z,1.13
2023-02-26T08:43:51.460Z,1.27
2023-02-26T08:44:54.018Z,1.50
2023-02-26T08:45:57.482Z,1.40
2023-02-26T08:47:00.505Z,1.50
2023-02-26T08:48:02.826Z,1.98
2023-02-26T08:49:05.262Z,3.55
2023-02-26T08:50:08.493Z,2.20
2023-02-26T08:51:10.906Z,2.17
2023-02-26T08:52:13.144Z,1.80
2023-02-26T08:53:15.937Z,1.15
2023-02-26T08:54:18.209Z,1.50
2023-02-26T08:55:21.125Z,1.48
2023-02-26T08:56:23.631Z,2.00
2023-02-26T08:57:26.129Z,2.25
2023-02-26T08:58:28.658Z,1.67
2023-02-26T08:59:32.029Z,1.35
2023-02-26T09:00:34.641Z,5.13
2023-02-26T09:01:37.055Z,1.80
2023-02-26T09:02:39.520Z,2.20
2023-02-26T09:03:41.908Z,1.50
2023-02-26T09:04:44.220Z,1.85
2023-02-26T09:05:46.488Z,2.10
2023-02-26T09:06:49.114Z,2.85
2023-02-26T09:07:51.416Z,1.73
2023-02-26T09:08:53.846Z,1.70
2023-02-26T09:09:56.137Z,2.35
2023-02-26T09:11:00.929Z,2.15
2023-02-26T09:12:03.326Z,1.50
2023-02-26T09:13:05.597Z,1.50
2023-02-26T09:14:07.914Z,1.10
2023-02-26T09:15:12.188Z,1.50
2023-02-26T09:16:14.582Z,1.42
2023-02-26T09:17:17.084Z,1.25
2023-02-26T09:18:19.333Z,1.15
2023-02-26T09:19:21.739Z,1.30
2023-02-26T09:20:24.118Z,1.40
2023-02-26T09:21:26.443Z,2.45
2023-02-26T09:22:28.667Z,3.03
2023-02-26T09:23:30.953Z,3.60
2023-02-26T09:24:33.324Z,2.88
2023-02-26T09:25:35.747Z,2.30
2023-02-26T09:26:38.398Z,1.83
2023-02-26T09:27:40.846Z,1.60
2023-02-26T09:28:43.167Z,1.20
2023-02-26T09:29:45.545Z,1.35
2023-02-26T09:30:48.142Z,1.40
2023-02-26T09:31:50.465Z,1.25
2023-02-26T09:32:52.835Z,1.70
2023-02-26T09:33:55.180Z,1.77
2023-02-26T09:34:57.548Z,1.65
2023-02-26T09:35:59.814Z,2.17
2023-02-26T09:37:03.903Z,1.50
2023-02-26T09:38:06.279Z,1.88
2023-02-26T09:39:08.891Z,3.47
2023-02-26T09:40:25.857Z,8.18
2023-02-26T09:41:36.334Z,21.38
2023-02-26T09:43:00.199Z,13.80
2023-02-26T09:44:19.329Z,14.60
2023-02-26T09:45:44.466Z,13.63
2023-02-26T09:46:58.990Z,14.63
2023-02-26T09:48:05.381Z,17.55
2023-02-26T09:49:19.904Z,5.45
2023-02-26T09:50:28.481Z,5.55
2023-02-26T09:51:31.998Z,6.35
2023-02-26T09:52:43.554Z,10.43
2023-02-26T09:53:49.531Z,8.80
2023-02-26T09:54:59.384Z,9.77
2023-02-26T09:56:16.320Z,6.00
2023-02-26T09:57:28.129Z,6.28
2023-02-26T09:58:39.603Z,7.47
2023-02-26T09:59:41.994Z,5.70
2023-02-26T10:00:58.526Z,7.88
2023-02-26T10:02:12.870Z,6.63
2023-02-26T10:03:17.839Z,2.35
2023-02-26T10:05:18.898Z,2.65
2023-02-26T10:06:29.273Z,2.08
2023-02-26T10:07:43.399Z,2.45
2023-02-26T10:09:11.570Z,4.18
2023-02-26T10:10:16.557Z,4.00
2023-02-26T10:11:27.245Z,2.33
2023-02-26T10:12:34.104Z,1.80
2023-02-26T10:13:58.102Z,3.35
2023-02-26T10:15:21.329Z,2.33
2023-02-26T10:16:29.145Z,3.83
2023-02-26T10:17:40.921Z,3.58
2023-02-26T10:18:58.173Z,2.10
2023-02-26T10:20:11.476Z,6.10
2023-02-26T10:21:33.142Z,6.10
2023-02-26T10:22:46.706Z,7.35
2023-02-26T10:24:00.240Z,4.05
2023-02-26T10:25:15.247Z,3.50
2023-02-26T10:26:17.794Z,2.60
2023-02-26T10:27:45.454Z,1.98
2023-02-26T10:28:56.336Z,1.63
2023-02-26T10:30:02.845Z,1.50
2023-02-26T10:31:32.540Z,1.80
2023-02-26T10:32:46.342Z,2.83
2023-02-26T10:34:03.919Z,2.35
2023-02-26T10:35:17.681Z,2.50
2023-02-26T10:36:30.820Z,1.48
2023-02-26T10:37:47.557Z,2.53
2023-02-26T10:38:56.208Z,2.13
2023-02-26T10:40:09.280Z,1.50
2023-02-26T10:41:16.820Z,2.05
2023-02-26T10:42:25.242Z,2.65
2023-02-26T10:43:30.363Z,2.20
2023-02-26T10:44:51.338Z,2.08
2023-02-26T10:46:18.941Z,2.30
2023-02-26T10:47:33.278Z,3.30
2023-02-26T10:48:35.525Z,3.20
2023-02-26T10:49:59.104Z,4.35
2023-02-26T10:51:12.284Z,3.72
2023-02-26T10:52:19.248Z,2.30
2023-02-26T10:53:22.598Z,1.92
2023-02-26T10:54:34.000Z,1.70
2023-02-26T10:55:45.066Z,2.22
2023-02-26T10:56:47.519Z,4.45
2023-02-26T10:58:03.045Z,6.30
2023-02-26T10:59:05.381Z,6.82
2023-02-26T11:00:15.000Z,5.03
2023-02-26T11:01:20.217Z,4.25
2023-02-26T11:02:44.401Z,3.28
2023-02-26T11:03:50.010Z,1.95
2023-02-26T11:05:06.718Z,1.85
2023-02-26T11:06:12.883Z,3.30
2023-02-26T11:07:15.193Z,1.90
2023-02-26T11:08:29.128Z,1.20
2023-02-26T11:09:39.339Z,1.45
2023-02-26T11:10:59.256Z,1.25
2023-02-26T11:12:15.262Z,1.60
2023-02-26T11:13:17.941Z,2.40
2023-02-26T11:14:21.978Z,1.60
2023-02-26T11:15:27.216Z,1.15
2023-02-26T11:16:29.697Z,2.08
2023-02-26T11:17:33.444Z,2.28
2023-02-26T11:18:53.286Z,3.47
2023-02-26T11:20:28.257Z,1.90
2023-02-26T11:21:38.205Z,1.77
2023-02-26T11:22:43.825Z,3.40
2023-02-26T11:23:47.375Z,2.60
2023-02-26T11:24:51.952Z,2.58
2023-02-26T11:26:17.854Z,2.00
2023-02-26T11:27:31.202Z,3.33
2023-02-26T11:28:44.011Z,1.95
2023-02-26T11:29:55.725Z,2.70
2023-02-26T11:31:01.911Z,1.90
2023-02-26T11:32:05.136Z,1.95
2023-02-26T11:33:19.168Z,2.58
2023-02-26T11:34:24.158Z,2.03
2023-02-26T11:35:27.808Z,1.40
2023-02-26T11:36:32.391Z,1.50
2023-02-26T11:37:39.167Z,1.90
2023-02-26T11:38:46.375Z,2.55
2023-02-26T11:39:58.918Z,3.45
2023-02-26T11:41:01.781Z,3.63
2023-02-26T11:42:04.899Z,3.10
2023-02-26T11:43:14.265Z,2.65
2023-02-26T11:44:26.878Z,2.33
2023-02-26T11:45:29.232Z,2.45
2023-02-26T11:46:31.909Z,2.25
2023-02-26T11:47:34.997Z,2.00
2023-02-26T11:48:37.252Z,1.40
2023-02-26T11:49:52.530Z,1.40
2023-02-26T11:51:01.310Z,1.33
2023-02-26T11:52:32.670Z,2.15
2023-02-26T11:53:38.005Z,3.17
2023-02-26T11:54:40.328Z,7.93
2023-02-26T11:55:47.958Z,7.05
2023-02-26T11:56:50.763Z,6.35
2023-02-26T11:57:57.083Z,5.18
2023-02-26T11:59:09.645Z,3.08
2023-02-26T12:00:32.427Z,2.38
2023-02-26T12:01:36.854Z,2.58
2023-02-26T12:02:40.378Z,2.55
2023-02-26T12:03:47.270Z,2.00
2023-02-26T12:04:52.731Z,3.13
2023-02-26T12:05:55.073Z,2.55
2023-02-26T12:06:57.858Z,2.20
2023-02-26T12:08:00.505Z,2.60
2023-02-26T12:09:02.891Z,2.25
2023-02-26T12:10:17.578Z,2.10
2023-02-26T12:11:36.603Z,1.70
2023-02-26T12:12:46.800Z,2.17
2023-02-26T12:14:08.017Z,2.25
2023-02-26T12:15:32.025Z,2.40
2023-02-26T12:16:56.056Z,3.38
2023-02-26T12:18:36.689Z,2.45
2023-02-26T12:19:46.290Z,2.05
2023-02-26T12:21:18.001Z,1.75
2023-02-26T12:22:55.535Z,1.83
2023-02-26T12:24:22.083Z,2.15
2023-02-26T12:25:39.869Z,1.67
2023-02-26T12:27:13.876Z,2.00
2023-02-26T12:28:34.481Z,2.45
2023-02-26T12:29:57.607Z,1.63
2023-02-26T12:31:26.854Z,1.60
2023-02-26T12:33:04.880Z,1.85
2023-02-26T12:34:21.854Z,2.70
2023-02-26T12:35:57.737Z,2.80
2023-02-26T12:37:36.642Z,2.60
2023-02-26T12:38:51.969Z,2.50
2023-02-26T12:40:06.551Z,1.88
2023-02-26T12:41:22.909Z,2.30
2023-02-26T12:43:04.211Z,2.47
2023-02-26T12:44:23.784Z,1.50
2023-02-26T12:45:57.650Z,1.75
2023-02-26T12:47:24.502Z,1.45
2023-02-26T12:49:20.986Z,2.00
2023-02-26T12:50:34.279Z,1.80
2023-02-26T12:51:57.540Z,1.40
2023-02-26T12:53:15.161Z,2.00
2023-02-26T12:54:43.895Z,1.55
2023-02-26T12:56:12.433Z,1.73
2023-02-26T12:57:23.814Z,1.30
2023-02-26T12:58:40.813Z,1.45
2023-02-26T13:00:19.494Z,1.35
2023-02-26T13:01:56.005Z,1.33
2023-02-26T13:03:33.113Z,1.00
2023-02-26T13:04:47.541Z,1.23
2023-02-26T13:06:20.888Z,1.83
2023-02-26T13:07:49.538Z,1.23
2023-02-26T13:09:17.890Z,2.13
2023-02-26T13:10:28.292Z,1.30
2023-02-26T13:11:45.265Z,1.20
2023-02-26T13:12:59.643Z,2.20
2023-02-26T13:14:07.182Z,3.30
2023-02-26T13:15:43.198Z,4.00
2023-02-26T13:16:51.526Z,1.60
2023-02-26T13:18:22.700Z,1.33
2023-02-26T13:19:37.042Z,2.20
2023-02-26T13:20:44.823Z,2.10
2023-02-26T13:21:51.435Z,1.90
2023-02-26T13:22:59.589Z,2.58
2023-02-26T13:24:12.098Z,5.07
2023-02-26T13:25:51.884Z,9.13
2023-02-26T13:26:55.553Z,7.05
2023-02-26T13:27:59.928Z,9.38
2023-02-26T13:29:30.839Z,15.18
2023-02-26T13:30:38.559Z,14.23
2023-02-26T13:31:55.531Z,10.05
2023-02-26T13:33:00.057Z,6.60
2023-02-26T13:34:07.518Z,16.30
2023-02-26T13:35:21.099Z,10.10
2023-02-26T13:36:25.445Z,10.80
2023-02-26T13:37:52.306Z,14.70
2023-02-26T13:39:34.116Z,13.13
2023-02-26T13:40:44.119Z,15.38
2023-02-26T13:42:08.537Z,14.52
2023-02-26T13:43:26.000Z,16.55
2023-02-26T13:44:37.253Z,19.40
2023-02-26T13:46:20.923Z,12.45
2023-02-26T13:47:45.731Z,15.23
2023-02-26T13:49:21.528Z,9.40
2023-02-26T13:50:24.034Z,7.13
2023-02-26T13:51:51.226Z,6.50
2023-02-26T13:53:29.847Z,5.55
2023-02-26T13:54:44.614Z,5.22
2023-02-26T13:55:48.762Z,4.30
2023-02-26T13:57:29.020Z,5.50
2023-02-26T13:58:38.967Z,5.15
2023-02-26T13:59:53.835Z,5.20
2023-02-26T14:00:58.906Z,4.40
2023-02-26T14:02:22.881Z,3.15
2023-02-26T14:03:25.141Z,6.55
2023-02-26T14:04:32.562Z,6.20
2023-02-26T14:05:55.163Z,11.80
2023-02-26T14:06:59.173Z,26.10
2023-02-26T14:08:01.532Z,42.67
2023-02-26T14:09:28.331Z,21.50
2023-02-26T14:10:53.602Z,27.00
2023-02-26T14:11:55.875Z,42.78
2023-02-26T14:13:19.227Z,49.72
2023-02-26T14:14:21.544Z,13.02
2023-02-26T14:15:41.579Z,17.80
2023-02-26T14:16:49.160Z,20.70
2023-02-26T14:18:02.294Z,37.55
2023-02-26T14:19:13.439Z,24.05
2023-02-26T14:20:30.352Z,30.80
2023-02-26T14:21:53.480Z,25.48
2023-02-26T14:23:09.588Z,22.90
2023-02-26T14:24:37.484Z,19.67
2023-02-26T14:25:52.794Z,25.90
2023-02-26T14:27:13.569Z,16.40
2023-02-26T14:28:25.069Z,20.45
2023-02-26T14:29:41.180Z,13.43
2023-02-26T14:30:50.161Z,11.57
2023-02-26T14:32:03.153Z,5.22
2023-02-26T14:33:10.174Z,3.63
2023-02-26T14:34:31.884Z,3.10
2023-02-26T14:35:35.135Z,3.08
2023-02-26T14:36:47.512Z,3.13
2023-02-26T14:38:07.985Z,3.40
2023-02-26T14:39:24.227Z,3.53
2023-02-26T14:40:29.264Z,2.53
2023-02-26T14:41:40.445Z,1.60
2023-02-26T14:42:52.112Z,1.80
2023-02-26T14:44:10.935Z,3.05
2023-02-26T14:45:32.377Z,4.05
2023-02-26T14:46:35.838Z,10.90
2023-02-26T14:47:38.605Z,16.30
2023-02-26T14:48:41.057Z,26.48
2023-02-26T14:49:48.081Z,30.75
2023-02-26T14:51:24.453Z,42.45
2023-02-26T14:52:48.148Z,35.90
2023-02-26T14:54:09.066Z,32.58
2023-02-26T14:55:27.817Z,32.10
2023-02-26T14:56:57.449Z,20.42
2023-02-26T14:58:23.979Z,15.50
2023-02-26T14:59:29.684Z,12.77
2023-02-26T15:00:44.338Z,11.40
2023-02-26T15:02:09.695Z,9.82
2023-02-26T15:03:32.904Z,10.93
2023-02-26T15:04:54.282Z,9.80
2023-02-26T15:06:02.747Z,9.63
2023-02-26T15:07:51.261Z,9.15
2023-02-26T15:09:05.220Z,9.88
2023-02-26T15:10:42.628Z,12.70
2023-02-26T15:11:58.441Z,11.48
2023-02-26T15:13:16.642Z,10.60
2023-02-26T15:14:35.542Z,12.85
2023-02-26T15:15:55.603Z,10.32
2023-02-26T15:17:03.496Z,10.85
2023-02-26T15:18:21.889Z,14.98
2023-02-26T15:19:42.912Z,15.10
2023-02-26T15:21:00.635Z,14.70
2023-02-26T15:22:23.866Z,13.30